Time;durP1;ratioP1;P1;durP2;ratioP2;P2;SDS_P1;SDS_P2;PMS_P1;PMS_P2;Temp;Humidity;BMP_temperature;BMP_pressure;BME280_temperature;BME280_humidity;BME280_pressure;Samples;Min_cycle;Max_cycle;Signal;HPM_P1;HPM_P2
2022/08/07 00:00:18;;;;;;;12.52;3.40;;;;;;;;;;5033652;28;20025;-65
2022/08/07 00:02:44;;;;;;;10.00;3.53;;;;;;;;;;5040906;28;20040;-66
2022/08/07 00:05:10;;;;;;;10.82;3.45;;;;;;;;;;5035535;28;20040;-65
2022/08/07 00:07:36;;;;;;;10.82;3.90;;;;;;;;;;5038345;28;20147;-65
2022/08/07 00:10:03;;;;;;;12.05;3.55;;;;;;;;;;5040302;28;20233;-65
2022/08/07 00:12:30;;;;;;;13.63;3.50;;;;;;;;;;5036274;28;20063;-65
2022/08/07 00:14:57;;;;;;;10.40;3.67;;;;;;;;;;5036772;28;20038;-65
2022/08/07 00:17:23;;;;;;;9.55;3.47;;;;;;;;;;5036673;28;20118;-67
2022/08/07 00:19:49;;;;;;;10.95;3.47;;;;;;;;;;5037389;28;20025;-65
2022/08/07 00:22:16;;;;;;;12.02;3.63;;;;;;;;;;5038511;28;20531;-66
2022/08/07 00:24:42;;;;;;;10.35;3.70;;;;;;;;;;5039181;28;20028;-65
2022/08/07 00:27:08;;;;;;;11.00;3.40;;;;;;;;;;5037193;28;20062;-66
2022/08/07 00:29:34;;;;;;;10.85;3.90;;;;;;;;;;5042439;28;20398;-65
2022/08/07 00:32:02;;;;;;;11.30;3.95;;;;;;;;;;5040047;28;20032;-66
2022/08/07 00:34:29;;;;;;;12.40;3.38;;;;;;;;;;5033289;28;20659;-66
2022/08/07 00:36:55;;;;;;;9.40;3.30;;;;;;;;;;5038495;28;20023;-66
2022/08/07 00:39:21;;;;;;;12.40;3.63;;;;;;;;;;5032918;28;20135;-66
2022/08/07 00:41:49;;;;;;;10.88;3.78;;;;;;;;;;5037666;28;20052;-65
2022/08/07 00:44:15;;;;;;;10.52;3.70;;;;;;;;;;5035444;28;20028;-67
2022/08/07 00:46:41;;;;;;;11.27;3.90;;;;;;;;;;5038513;28;20225;-65
2022/08/07 00:49:08;;;;;;;9.43;3.47;;;;;;;;;;5028906;28;20029;-65
2022/08/07 00:51:34;;;;;;;12.95;4.05;;;;;;;;;;5041717;28;20053;-67
2022/08/07 00:54:00;;;;;;;12.30;3.97;;;;;;;;;;5037031;28;20032;-67
2022/08/07 00:56:28;;;;;;;11.60;4.07;;;;;;;;;;5036541;28;20029;-67
2022/08/07 00:58:55;;;;;;;9.85;3.15;;;;;;;;;;5039941;28;20017;-67
2022/08/07 01:01:21;;;;;;;13.65;3.80;;;;;;;;;;5038096;28;20543;-67
2022/08/07 01:03:48;;;;;;;12.10;4.13;;;;;;;;;;5039341;28;20414;-67
2022/08/07 01:06:15;;;;;;;12.93;4.25;;;;;;;;;;5036182;28;20028;-67
2022/08/07 01:08:41;;;;;;;8.98;3.58;;;;;;;;;;5036676;28;20577;-67
2022/08/07 01:11:08;;;;;;;10.63;3.90;;;;;;;;;;5035419;28;20059;-66
2022/08/07 01:13:35;;;;;;;11.85;4.40;;;;;;;;;;5042067;28;20033;-66
2022/08/07 01:16:02;;;;;;;11.23;3.85;;;;;;;;;;5039328;28;20036;-67
2022/08/07 01:18:28;;;;;;;14.88;4.10;;;;;;;;;;5036059;28;20027;-66
2022/08/07 01:21:11;;;;;;;13.45;4.03;;;;;;;;;;5040472;28;20033;-66
2022/08/07 01:23:38;;;;;;;15.02;4.47;;;;;;;;;;5044699;28;20060;-67
2022/08/07 01:26:04;;;;;;;10.73;4.20;;;;;;;;;;5039762;28;20075;-67
2022/08/07 01:28:31;;;;;;;12.75;4.07;;;;;;;;;;5036403;28;20454;-66
2022/08/07 01:30:58;;;;;;;12.70;3.80;;;;;;;;;;5043301;28;20499;-66
2022/08/07 01:33:24;;;;;;;10.93;3.53;;;;;;;;;;5038382;28;20098;-66
2022/08/07 01:35:50;;;;;;;11.82;4.10;;;;;;;;;;5040839;28;20025;-66
2022/08/07 01:38:17;;;;;;;12.85;3.95;;;;;;;;;;5036805;28;20020;-67
2022/08/07 01:40:44;;;;;;;13.65;3.95;;;;;;;;;;5039873;28;20376;-66
2022/08/07 01:43:10;;;;;;;10.65;3.70;;;;;;;;;;5037359;28;20080;-66
2022/08/07 01:45:37;;;;;;;12.32;3.92;;;;;;;;;;5036504;28;20068;-66
2022/08/07 01:48:03;;;;;;;10.68;3.63;;;;;;;;;;5040241;28;20331;-66
2022/08/07 01:50:30;;;;;;;10.75;3.80;;;;;;;;;;5036765;28;20131;-66
2022/08/07 01:52:57;;;;;;;11.60;4.00;;;;;;;;;;5038755;28;20451;-66
2022/08/07 01:55:28;;;;;;;11.38;3.88;;;;;;;;;;5039223;28;20042;-66
2022/08/07 01:57:57;;;;;;;10.25;3.67;;;;;;;;;;5043480;28;20567;-67
2022/08/07 02:00:25;;;;;;;10.30;3.72;;;;;;;;;;5038436;28;20048;-66
2022/08/07 02:02:57;;;;;;;8.52;3.72;;;;;;;;;;5039168;28;20062;-66
2022/08/07 02:05:31;;;;;;;12.30;3.92;;;;;;;;;;5038119;28;20066;-67
2022/08/07 02:07:57;;;;;;;11.15;3.70;;;;;;;;;;5041533;28;20772;-67
2022/08/07 02:10:25;;;;;;;10.05;3.92;;;;;;;;;;5038515;28;20155;-66
2022/08/07 02:12:52;;;;;;;10.05;3.08;;;;;;;;;;5041904;28;20418;-67
2022/08/07 02:15:20;;;;;;;11.55;3.42;;;;;;;;;;5037399;28;20489;-67
2022/08/07 02:17:47;;;;;;;10.52;3.60;;;;;;;;;;5038253;28;20052;-67
2022/08/07 02:20:14;;;;;;;9.18;3.10;;;;;;;;;;5035553;28;20719;-67
2022/08/07 02:22:40;;;;;;;9.35;3.25;;;;;;;;;;5042408;28;20731;-66
2022/08/07 02:25:08;;;;;;;9.05;3.20;;;;;;;;;;5045239;28;20406;-66
2022/08/07 02:27:35;;;;;;;9.27;2.67;;;;;;;;;;5041732;28;20028;-67
2022/08/07 02:30:02;;;;;;;11.63;3.20;;;;;;;;;;5040606;28;20028;-66
2022/08/07 02:32:28;;;;;;;8.18;2.88;;;;;;;;;;5036624;28;20042;-66
2022/08/07 02:34:56;;;;;;;10.98;3.10;;;;;;;;;;5038378;28;20028;-66
2022/08/07 02:37:23;;;;;;;8.68;2.90;;;;;;;;;;5036173;28;20025;-66
2022/08/07 02:39:49;;;;;;;9.82;3.45;;;;;;;;;;5038704;28;20082;-66
2022/08/07 02:42:16;;;;;;;8.15;3.30;;;;;;;;;;5040489;28;20496;-65
2022/08/07 02:44:43;;;;;;;9.63;3.20;;;;;;;;;;5035616;28;20029;-65
2022/08/07 02:47:10;;;;;;;8.80;3.20;;;;;;;;;;5035086;28;20139;-66
2022/08/07 02:49:36;;;;;;;11.13;3.20;;;;;;;;;;5041770;28;20058;-66
2022/08/07 02:52:04;;;;;;;12.80;2.95;;;;;;;;;;5035447;28;20036;-66
2022/08/07 02:54:31;;;;;;;9.38;2.88;;;;;;;;;;5053341;28;20052;-66
2022/08/07 02:57:00;;;;;;;9.30;3.53;;;;;;;;;;5043115;28;20033;-66
2022/08/07 02:59:26;;;;;;;10.27;3.28;;;;;;;;;;5037898;28;20114;-66
2022/08/07 03:01:53;;;;;;;8.13;2.97;;;;;;;;;;5041459;28;20670;-69
2022/08/07 03:04:20;;;;;;;13.98;3.78;;;;;;;;;;5033156;28;20037;-66
2022/08/07 03:06:47;;;;;;;9.18;3.55;;;;;;;;;;5039369;28;20031;-66
2022/08/07 03:09:14;;;;;;;11.23;3.72;;;;;;;;;;5035623;28;20394;-65
2022/08/07 03:11:40;;;;;;;7.70;2.92;;;;;;;;;;5041863;28;20028;-65
2022/08/07 03:14:07;;;;;;;10.18;2.90;;;;;;;;;;5045005;28;20528;-65
2022/08/07 03:16:34;;;;;;;8.55;3.03;;;;;;;;;;5062268;28;20051;-66
2022/08/07 03:19:00;;;;;;;9.65;3.13;;;;;;;;;;5043530;28;20037;-66
2022/08/07 03:21:27;;;;;;;7.53;2.85;;;;;;;;;;5041747;28;21908;-66
2022/08/07 03:24:00;;;;;;;8.48;3.03;;;;;;;;;;5042699;28;20045;-65
2022/08/07 03:26:28;;;;;;;9.32;3.17;;;;;;;;;;5041921;28;20031;-65
2022/08/07 03:28:55;;;;;;;9.55;3.05;;;;;;;;;;5042890;28;20120;-65
2022/08/07 03:31:22;;;;;;;9.07;3.00;;;;;;;;;;5035043;28;20040;-65
2022/08/07 03:33:49;;;;;;;9.05;2.97;;;;;;;;;;5042258;28;20028;-65
2022/08/07 03:36:17;;;;;;;8.90;2.83;;;;;;;;;;5037343;28;20467;-65
2022/08/07 03:38:45;;;;;;;6.85;3.00;;;;;;;;;;5040692;28;20326;-64
2022/08/07 03:41:12;;;;;;;10.10;2.90;;;;;;;;;;5038123;28;20031;-65
2022/08/07 03:43:38;;;;;;;10.80;3.20;;;;;;;;;;5042181;28;20029;-65
2022/08/07 03:46:05;;;;;;;9.43;3.20;;;;;;;;;;5038872;28;20372;-65
2022/08/07 03:48:33;;;;;;;8.98;3.28;;;;;;;;;;5037913;28;20028;-65
2022/08/07 03:51:00;;;;;;;10.23;3.83;;;;;;;;;;5044362;28;20040;-65
2022/08/07 03:53:26;;;;;;;11.73;3.85;;;;;;;;;;5040321;28;20685;-65
2022/08/07 03:55:53;;;;;;;9.88;3.10;;;;;;;;;;5044095;28;20119;-65
2022/08/07 03:58:21;;;;;;;10.63;3.53;;;;;;;;;;5036842;28;20067;-65
2022/08/07 04:00:48;;;;;;;11.35;3.28;;;;;;;;;;5044603;28;20646;-65
2022/08/07 04:03:14;;;;;;;9.50;3.00;;;;;;;;;;5042811;28;20047;-65
2022/08/07 04:05:41;;;;;;;9.65;2.85;;;;;;;;;;5043475;28;20031;-65
2022/08/07 04:08:09;;;;;;;9.40;3.40;;;;;;;;;;5037756;28;20581;-65
2022/08/07 04:10:35;;;;;;;11.35;3.97;;;;;;;;;;5045521;28;20103;-65
2022/08/07 04:13:03;;;;;;;12.55;3.85;;;;;;;;;;5044933;28;20612;-65
2022/08/07 04:15:29;;;;;;;11.48;3.40;;;;;;;;;;5035987;28;20158;-65
2022/08/07 04:17:55;;;;;;;14.23;3.50;;;;;;;;;;5042386;28;20261;-65
2022/08/07 04:20:21;;;;;;;10.68;3.58;;;;;;;;;;5035577;28;20024;-65
2022/08/07 04:22:50;;;;;;;9.45;3.72;;;;;;;;;;5041260;28;20307;-65
2022/08/07 04:25:17;;;;;;;12.45;3.42;;;;;;;;;;5040003;28;20124;-65
2022/08/07 04:27:43;;;;;;;8.95;3.25;;;;;;;;;;5060139;28;20537;-65
2022/08/07 04:30:10;;;;;;;8.13;3.40;;;;;;;;;;5044888;28;20734;-65
2022/08/07 04:32:36;;;;;;;11.57;3.75;;;;;;;;;;5046768;28;20135;-65
2022/08/07 04:35:03;;;;;;;8.60;3.38;;;;;;;;;;5046522;28;20286;-65
2022/08/07 04:37:31;;;;;;;8.85;3.10;;;;;;;;;;5040527;28;20032;-65
2022/08/07 04:39:57;;;;;;;8.43;3.33;;;;;;;;;;5041177;28;20039;-65
2022/08/07 04:42:31;;;;;;;11.38;3.50;;;;;;;;;;5037198;28;20454;-65
2022/08/07 04:45:01;;;;;;;11.23;3.67;;;;;;;;;;5046651;28;20028;-65
2022/08/07 04:47:34;;;;;;;10.30;3.20;;;;;;;;;;5039477;28;20513;-65
2022/08/07 04:50:08;;;;;;;9.15;3.05;;;;;;;;;;5042872;28;20602;-65
2022/08/07 04:52:50;;;;;;;8.82;3.20;;;;;;;;;;5044229;28;20124;-65
2022/08/07 04:55:29;;;;;;;10.68;3.15;;;;;;;;;;5039187;28;20020;-65
2022/08/07 04:57:55;;;;;;;12.02;3.33;;;;;;;;;;5039718;28;20493;-66
2022/08/07 05:00:29;;;;;;;9.88;3.08;;;;;;;;;;5057381;28;20107;-65
2022/08/07 05:03:05;;;;;;;9.15;2.90;;;;;;;;;;5044717;28;20032;-65
2022/08/07 05:05:43;;;;;;;12.57;3.43;;;;;;;;;;5042765;28;20031;-65
2022/08/07 05:08:14;;;;;;;15.23;3.80;;;;;;;;;;5043722;28;20675;-66
2022/08/07 05:10:43;;;;;;;9.63;3.72;;;;;;;;;;5039188;28;20465;-66
2022/08/07 05:13:20;;;;;;;11.20;4.05;;;;;;;;;;5039721;28;20057;-65
2022/08/07 05:15:49;;;;;;;11.00;4.05;;;;;;;;;;5045186;28;20063;-65
2022/08/07 05:18:33;;;;;;;10.07;3.70;;;;;;;;;;5041584;28;20021;-65
2022/08/07 05:21:01;;;;;;;10.88;4.20;;;;;;;;;;5043524;28;20036;-65
2022/08/07 05:23:38;;;;;;;10.63;4.22;;;;;;;;;;5037498;28;20044;-65
2022/08/07 05:26:04;;;;;;;11.00;3.60;;;;;;;;;;5044071;28;20116;-65
2022/08/07 05:28:32;;;;;;;8.88;3.60;;;;;;;;;;5040760;28;20372;-65
2022/08/07 05:30:59;;;;;;;11.07;3.78;;;;;;;;;;5040011;28;20032;-66
2022/08/07 05:33:26;;;;;;;13.27;4.03;;;;;;;;;;5039457;28;20043;-65
2022/08/07 05:35:53;;;;;;;11.40;4.00;;;;;;;;;;5040995;28;20040;-65
2022/08/07 05:38:19;;;;;;;12.70;3.63;;;;;;;;;;5051566;28;20519;-65
2022/08/07 05:40:45;;;;;;;9.88;3.42;;;;;;;;;;5039156;28;20595;-65
2022/08/07 05:43:12;;;;;;;11.30;4.10;;;;;;;;;;5040189;28;20035;-66
2022/08/07 05:45:40;;;;;;;10.05;3.30;;;;;;;;;;5045092;28;20043;-65
2022/08/07 05:48:06;;;;;;;12.68;3.53;;;;;;;;;;5039847;28;20028;-66
2022/08/07 05:50:33;;;;;;;8.55;3.78;;;;;;;;;;5041557;28;20052;-66
2022/08/07 05:52:59;;;;;;;9.90;3.88;;;;;;;;;;5045154;28;21092;-66
2022/08/07 05:55:26;;;;;;;9.68;3.53;;;;;;;;;;5039127;28;20036;-66
2022/08/07 05:57:52;;;;;;;12.00;3.30;;;;;;;;;;5047323;28;20028;-66
2022/08/07 06:00:18;;;;;;;8.98;3.17;;;;;;;;;;5040510;28;20590;-66
2022/08/07 06:02:47;;;;;;;10.40;3.33;;;;;;;;;;5044624;28;20084;-66
2022/08/07 06:05:14;;;;;;;10.98;3.30;;;;;;;;;;5038689;28;20060;-66
2022/08/07 06:07:40;;;;;;;10.60;3.00;;;;;;;;;;5044024;28;20085;-66
2022/08/07 06:10:08;;;;;;;11.48;3.20;;;;;;;;;;5043079;28;20032;-66
2022/08/07 06:12:34;;;;;;;8.88;2.90;;;;;;;;;;5041318;28;20086;-66
2022/08/07 06:15:01;;;;;;;11.27;2.97;;;;;;;;;;5047059;28;20035;-66
2022/08/07 06:17:27;;;;;;;7.07;2.70;;;;;;;;;;5040876;28;20031;-66
2022/08/07 06:19:54;;;;;;;8.68;2.80;;;;;;;;;;5045017;28;20504;-66
2022/08/07 06:22:21;;;;;;;9.88;2.97;;;;;;;;;;5041640;28;20032;-66
2022/08/07 06:24:47;;;;;;;11.35;2.70;;;;;;;;;;5046006;28;20132;-66
2022/08/07 06:27:20;;;;;;;7.95;2.72;;;;;;;;;;5041871;28;20085;-66
2022/08/07 06:29:47;;;;;;;13.68;2.78;;;;;;;;;;5043865;28;20015;-66
2022/08/07 06:32:13;;;;;;;12.15;3.20;;;;;;;;;;5040843;28;20035;-66
2022/08/07 06:34:39;;;;;;;11.68;3.60;;;;;;;;;;5039830;28;20032;-66
2022/08/07 06:37:05;;;;;;;11.38;3.70;;;;;;;;;;5041181;28;20118;-66
2022/08/07 06:39:31;;;;;;;11.98;4.10;;;;;;;;;;5035166;28;20145;-66
2022/08/07 06:42:06;;;;;;;12.07;4.60;;;;;;;;;;5040514;28;20431;-66
2022/08/07 06:44:32;;;;;;;12.82;5.03;;;;;;;;;;5053644;28;20229;-66
2022/08/07 06:46:58;;;;;;;11.02;4.95;;;;;;;;;;5041898;28;20029;-66
2022/08/07 06:49:24;;;;;;;12.52;5.18;;;;;;;;;;5036958;28;20035;-66
2022/08/07 06:51:51;;;;;;;9.68;4.20;;;;;;;;;;5040465;28;20099;-66
2022/08/07 06:54:18;;;;;;;10.98;3.70;;;;;;;;;;5040528;28;20056;-66
2022/08/07 06:56:49;;;;;;;9.00;3.30;;;;;;;;;;5047634;28;20024;-66
2022/08/07 06:59:36;;;;;;;11.45;3.83;;;;;;;;;;5035782;28;20028;-66
2022/08/07 07:02:03;;;;;;;12.73;3.53;;;;;;;;;;5043704;28;20099;-66
2022/08/07 07:04:30;;;;;;;10.82;3.33;;;;;;;;;;5038106;28;20043;-66
2022/08/07 07:06:56;;;;;;;14.18;3.15;;;;;;;;;;5042562;28;20571;-66
2022/08/07 07:09:24;;;;;;;11.07;3.30;;;;;;;;;;5034171;28;20605;-66
2022/08/07 07:12:08;;;;;;;12.05;3.40;;;;;;;;;;5042620;28;20066;-66
2022/08/07 07:14:37;;;;;;;13.75;3.20;;;;;;;;;;5042238;28;21367;-66
2022/08/07 07:17:08;;;;;;;12.60;3.63;;;;;;;;;;5060650;28;20127;-66
2022/08/07 07:19:38;;;;;;;13.35;3.05;;;;;;;;;;5047567;28;20452;-66
2022/08/07 07:22:04;;;;;;;12.38;3.80;;;;;;;;;;5056808;28;20472;-67
2022/08/07 07:24:30;;;;;;;10.77;2.90;;;;;;;;;;5037485;28;20041;-66
2022/08/07 07:26:58;;;;;;;8.95;2.70;;;;;;;;;;5040813;28;20215;-66
2022/08/07 07:29:26;;;;;;;8.32;2.60;;;;;;;;;;5038144;28;20083;-66
2022/08/07 07:31:54;;;;;;;8.00;2.80;;;;;;;;;;5053195;28;20028;-66
2022/08/07 07:34:26;;;;;;;7.50;2.55;;;;;;;;;;5035992;28;20461;-66
2022/08/07 07:36:53;;;;;;;9.23;2.70;;;;;;;;;;5060137;28;20025;-66
2022/08/07 07:39:21;;;;;;;11.32;2.85;;;;;;;;;;5033607;28;20032;-66
2022/08/07 07:41:48;;;;;;;7.07;2.50;;;;;;;;;;5045111;28;20470;-66
2022/08/07 07:44:15;;;;;;;8.90;2.85;;;;;;;;;;5036060;28;20724;-66
2022/08/07 07:46:42;;;;;;;8.85;2.40;;;;;;;;;;5035593;28;20024;-66
2022/08/07 07:49:09;;;;;;;7.25;2.40;;;;;;;;;;5038731;28;20115;-66
2022/08/07 07:51:36;;;;;;;9.25;2.38;;;;;;;;;;5036498;28;20051;-66
2022/08/07 07:54:03;;;;;;;8.35;2.40;;;;;;;;;;5037429;28;20032;-66
2022/08/07 07:56:31;;;;;;;9.48;2.88;;;;;;;;;;5036762;28;20042;-66
2022/08/07 07:59:02;;;;;;;8.88;2.67;;;;;;;;;;5039072;28;20435;-66
2022/08/07 08:01:29;;;;;;;6.45;2.47;;;;;;;;;;5033291;28;20699;-66
2022/08/07 08:03:57;;;;;;;9.95;2.50;;;;;;;;;;5039235;28;20064;-66
2022/08/07 08:06:24;;;;;;;10.05;2.55;;;;;;;;;;5034321;28;20453;-66
2022/08/07 08:09:10;;;;;;;7.65;2.50;;;;;;;;;;5040707;28;20024;-66
2022/08/07 08:11:41;;;;;;;8.35;2.65;;;;;;;;;;5048410;28;20029;-66
2022/08/07 08:14:07;;;;;;;6.95;2.40;;;;;;;;;;5036123;28;20611;-67
2022/08/07 08:16:33;;;;;;;6.45;2.20;;;;;;;;;;5037956;28;20020;-66
2022/08/07 08:19:01;;;;;;;7.22;2.67;;;;;;;;;;5038140;28;21450;-66
2022/08/07 08:27:10;;;;;;;7.53;2.50;;;;;;;;;;5037756;28;20032;-65
2022/08/07 08:29:47;;;;;;;9.85;2.70;;;;;;;;;;5051533;28;20028;-65
2022/08/07 08:32:17;;;;;;;7.95;2.30;;;;;;;;;;5032502;28;20025;-65
2022/08/07 08:34:44;;;;;;;6.82;2.25;;;;;;;;;;5047985;28;20892;-65
2022/08/07 08:37:11;;;;;;;8.77;2.80;;;;;;;;;;5034606;28;20589;-66
2022/08/07 08:39:38;;;;;;;7.32;2.35;;;;;;;;;;5048013;28;20467;-65
2022/08/07 08:42:05;;;;;;;7.38;2.22;;;;;;;;;;5034732;28;20020;-65
2022/08/07 08:44:34;;;;;;;9.68;3.42;;;;;;;;;;5010415;28;20313;-66
2022/08/07 08:47:01;;;;;;;9.02;2.53;;;;;;;;;;5015688;28;20048;-66
2022/08/07 08:49:30;;;;;;;6.78;2.22;;;;;;;;;;5042382;28;20048;-66
2022/08/07 08:52:14;;;;;;;8.93;2.42;;;;;;;;;;5047165;28;20032;-65
2022/08/07 08:54:51;;;;;;;6.32;2.17;;;;;;;;;;5047218;28;20388;-66
2022/08/07 08:57:34;;;;;;;6.68;2.35;;;;;;;;;;5050214;28;20051;-66
2022/08/07 09:00:06;;;;;;;11.70;2.53;;;;;;;;;;5051379;28;20513;-66
2022/08/07 09:02:32;;;;;;;5.90;2.10;;;;;;;;;;5049268;28;20028;-66
2022/08/07 09:04:58;;;;;;;10.88;2.28;;;;;;;;;;5049072;28;20078;-67
2022/08/07 09:07:30;;;;;;;7.07;2.10;;;;;;;;;;5045983;28;20029;-67
2022/08/07 09:10:15;;;;;;;8.23;2.28;;;;;;;;;;5045105;28;20075;-67
2022/08/07 09:12:44;;;;;;;8.27;2.40;;;;;;;;;;5048425;28;20063;-67
2022/08/07 09:15:10;;;;;;;7.75;2.25;;;;;;;;;;5047689;28;20470;-67
2022/08/07 09:17:36;;;;;;;9.98;2.58;;;;;;;;;;5049430;28;20056;-68
2022/08/07 09:20:29;;;;;;;8.95;2.20;;;;;;;;;;5037897;28;20479;-66
2022/08/07 09:23:02;;;;;;;7.30;2.17;;;;;;;;;;4978804;28;20186;-67
2022/08/07 09:25:47;;;;;;;6.60;2.22;;;;;;;;;;5002847;28;20032;-68
2022/08/07 09:28:20;;;;;;;9.80;2.25;;;;;;;;;;5001217;28;20490;-66
2022/08/07 09:30:54;;;;;;;7.35;2.13;;;;;;;;;;5003268;28;20140;-66
2022/08/07 09:33:36;;;;;;;9.38;2.50;;;;;;;;;;4997871;28;21299;-67
2022/08/07 09:36:22;;;;;;;6.22;2.10;;;;;;;;;;5003523;28;20033;-67
2022/08/07 09:39:07;;;;;;;6.60;2.20;;;;;;;;;;5002578;28;20028;-67
2022/08/07 09:41:42;;;;;;;9.50;2.63;;;;;;;;;;5003853;28;20024;-66
2022/08/07 09:44:16;;;;;;;8.45;2.40;;;;;;;;;;5005911;28;20460;-66
2022/08/07 09:46:58;;;;;;;9.18;2.17;;;;;;;;;;4999925;28;20131;-67
2022/08/07 09:49:42;;;;;;;8.35;2.42;;;;;;;;;;5000598;28;20101;-66
2022/08/07 09:52:20;;;;;;;8.80;2.45;;;;;;;;;;4999677;28;20069;-66
2022/08/07 09:54:47;;;;;;;7.28;2.03;;;;;;;;;;5004991;28;20025;-66
2022/08/07 09:57:31;;;;;;;6.40;1.98;;;;;;;;;;5000462;28;20077;-66
2022/08/07 09:59:58;;;;;;;7.50;1.88;;;;;;;;;;5051207;28;20123;-66
2022/08/07 10:02:27;;;;;;;8.15;2.40;;;;;;;;;;5045549;28;20566;-66
2022/08/07 10:04:56;;;;;;;6.95;2.10;;;;;;;;;;5052546;28;20032;-66
2022/08/07 10:07:31;;;;;;;9.23;2.28;;;;;;;;;;5045890;28;20411;-66
2022/08/07 10:09:57;;;;;;;7.05;2.00;;;;;;;;;;5049531;28;20025;-66
2022/08/07 10:12:42;;;;;;;8.60;2.25;;;;;;;;;;5050479;28;20615;-66
2022/08/07 10:15:23;;;;;;;5.93;1.75;;;;;;;;;;5048499;28;20025;-66
2022/08/07 10:17:59;;;;;;;9.55;2.00;;;;;;;;;;5050479;28;20140;-67
2022/08/07 10:20:25;;;;;;;;;;;;;;;;;;5044098;28;20024;-67
2022/08/07 10:23:03;;;;;;;7.43;2.20;;;;;;;;;;5051985;28;19916;-67
2022/08/07 10:25:29;;;;;;;7.72;2.28;;;;;;;;;;5049499;28;20036;-66
2022/08/07 10:28:04;;;;;;;7.88;2.08;;;;;;;;;;5051342;28;20036;-67
2022/08/07 10:30:30;;;;;;;;;;;;;;;;;;5050318;28;20402;-66
2022/08/07 10:33:15;;;;;;;6.07;2.17;;;;;;;;;;5064665;28;19916;-68
2022/08/07 10:35:47;;;;;;;11.65;2.33;;;;;;;;;;5046698;28;20029;-67
2022/08/07 10:38:32;;;;;;;7.88;1.90;;;;;;;;;;5049625;28;20016;-67
2022/08/07 10:41:04;;;;;;;7.78;1.90;;;;;;;;;;5065656;28;20447;-67
2022/08/07 10:43:34;;;;;;;5.93;1.80;;;;;;;;;;5050045;28;20537;-67
2022/08/07 10:46:01;;;;;;;6.35;1.65;;;;;;;;;;5049138;28;20025;-67
2022/08/07 10:48:33;;;;;;;7.22;1.90;;;;;;;;;;5052384;28;20028;-67
2022/08/07 10:51:03;;;;;;;5.63;1.60;;;;;;;;;;5049675;28;20090;-67
2022/08/07 10:53:36;;;;;;;6.95;1.67;;;;;;;;;;5044864;28;20056;-68
2022/08/07 10:56:04;;;;;;;6.70;1.45;;;;;;;;;;5046268;28;20035;-66
2022/08/07 10:58:52;;;;;;;5.43;1.42;;;;;;;;;;5039646;28;20242;-66
2022/08/07 11:01:41;;;;;;;3.88;1.30;;;;;;;;;;5044378;28;20538;-66
2022/08/07 11:04:07;;;;;;;4.00;1.40;;;;;;;;;;5025509;28;20040;-66
2022/08/07 11:06:44;;;;;;;6.60;1.60;;;;;;;;;;5012655;28;20079;-64
2022/08/07 11:09:13;;;;;;;7.63;1.70;;;;;;;;;;5030807;28;20139;-65
2022/08/07 11:11:59;;;;;;;8.15;1.73;;;;;;;;;;5035245;28;20975;-65
2022/08/07 11:14:25;;;;;;;6.75;1.60;;;;;;;;;;5009957;28;20029;-67
2022/08/07 11:16:58;;;;;;;6.07;1.52;;;;;;;;;;5034756;28;20033;-65
2022/08/07 11:19:39;;;;;;;6.53;1.60;;;;;;;;;;5028964;28;20037;-65
2022/08/07 11:22:11;;;;;;;8.30;1.73;;;;;;;;;;5033416;28;20041;-64
2022/08/07 11:24:44;;;;;;;7.20;1.60;;;;;;;;;;5033706;28;20067;-64
2022/08/07 11:27:14;;;;;;;7.68;1.85;;;;;;;;;;5028366;28;20029;-65
2022/08/07 11:29:46;;;;;;;7.32;1.75;;;;;;;;;;5019209;28;20483;-64
2022/08/07 11:32:22;;;;;;;6.03;1.65;;;;;;;;;;5027217;28;20233;-65
2022/08/07 11:34:52;;;;;;;6.10;1.90;;;;;;;;;;5034056;28;20583;-65
2022/08/07 11:37:27;;;;;;;6.82;1.95;;;;;;;;;;5029829;28;20179;-65
2022/08/07 11:39:54;;;;;;;6.32;1.90;;;;;;;;;;5026184;28;20132;-65
2022/08/07 11:42:46;;;;;;;5.20;1.60;;;;;;;;;;5045396;28;20050;-66
2022/08/07 11:45:18;;;;;;;5.88;1.65;;;;;;;;;;5040490;28;20142;-65
2022/08/07 11:47:53;;;;;;;7.75;1.77;;;;;;;;;;5051679;28;20447;-67
2022/08/07 11:50:26;;;;;;;7.90;1.58;;;;;;;;;;5045937;28;20136;-67
2022/08/07 11:53:12;;;;;;;4.93;1.60;;;;;;;;;;5044485;28;20028;-65
2022/08/07 11:56:00;;;;;;;6.85;2.00;;;;;;;;;;5047605;28;20044;-65
2022/08/07 11:58:27;;;;;;;6.00;1.55;;;;;;;;;;5044233;28;20028;-65
2022/08/07 12:00:53;;;;;;;4.85;1.40;;;;;;;;;;5053179;28;20196;-66
2022/08/07 12:03:36;;;;;;;7.03;1.70;;;;;;;;;;5044979;28;20067;-67
2022/08/07 12:06:20;;;;;;;5.00;1.48;;;;;;;;;;5049069;28;20583;-67
2022/08/07 12:08:53;;;;;;;4.93;1.45;;;;;;;;;;5061973;28;20082;-65
2022/08/07 12:11:24;;;;;;;5.82;1.20;;;;;;;;;;5047255;28;20043;-67
2022/08/07 12:13:56;;;;;;;6.45;1.60;;;;;;;;;;5045480;28;20080;-67
2022/08/07 12:16:34;;;;;;;5.30;1.65;;;;;;;;;;5045992;28;20032;-67
2022/08/07 12:19:13;;;;;;;6.45;1.50;;;;;;;;;;5048318;28;20025;-67
2022/08/07 12:21:39;;;;;;;5.25;1.65;;;;;;;;;;5048820;28;20112;-67
2022/08/07 12:24:24;;;;;;;6.28;1.40;;;;;;;;;;5048227;28;20035;-67
2022/08/07 12:26:55;;;;;;;5.47;1.40;;;;;;;;;;5051729;28;20558;-67
2022/08/07 12:29:21;;;;;;;5.45;1.42;;;;;;;;;;5047397;28;20032;-67
2022/08/07 12:32:06;;;;;;;6.40;1.42;;;;;;;;;;5048859;28;20060;-66
2022/08/07 12:34:34;;;;;;;7.30;1.45;;;;;;;;;;5060241;28;20435;-66
2022/08/07 12:37:00;;;;;;;5.05;1.33;;;;;;;;;;5049915;28;20407;-67
2022/08/07 12:39:28;;;;;;;7.22;1.50;;;;;;;;;;5045040;28;20036;-66
2022/08/07 12:41:55;;;;;;;6.45;1.45;;;;;;;;;;5045246;28;20368;-66
2022/08/07 12:44:23;;;;;;;4.55;1.60;;;;;;;;;;5044205;28;20037;-66
2022/08/07 12:46:50;;;;;;;5.60;1.52;;;;;;;;;;5056859;28;20024;-66
2022/08/07 12:49:19;;;;;;;7.25;1.60;;;;;;;;;;5049600;28;20032;-66
2022/08/07 12:52:07;;;;;;;7.63;1.80;;;;;;;;;;5052323;28;20053;-66
2022/08/07 12:54:53;;;;;;;4.78;1.30;;;;;;;;;;5047758;28;20558;-66
2022/08/07 12:57:22;;;;;;;4.35;1.20;;;;;;;;;;5051897;28;20063;-65
2022/08/07 12:59:49;;;;;;;4.25;1.48;;;;;;;;;;5051210;28;20102;-66
2022/08/07 13:02:15;;;;;;;6.47;1.42;;;;;;;;;;5049174;28;20127;-65
2022/08/07 13:04:56;;;;;;;6.35;1.50;;;;;;;;;;5052131;28;20090;-64
2022/08/07 13:07:22;;;;;;;4.70;1.40;;;;;;;;;;5064444;28;20043;-65
2022/08/07 13:10:07;;;;;;;6.38;1.40;;;;;;;;;;5050126;28;20112;-65
2022/08/07 13:12:45;;;;;;;4.80;1.50;;;;;;;;;;5060267;28;20260;-64
2022/08/07 13:15:21;;;;;;;6.30;1.55;;;;;;;;;;5049440;28;20125;-65
2022/08/07 13:17:56;;;;;;;6.53;1.60;;;;;;;;;;5056507;28;20153;-63
2022/08/07 13:20:25;;;;;;;8.48;1.80;;;;;;;;;;5041405;28;20056;-63
2022/08/07 13:23:06;;;;;;;4.80;1.50;;;;;;;;;;5047511;28;20178;-65
2022/08/07 13:25:38;;;;;;;6.05;1.55;;;;;;;;;;5043183;28;20107;-66
2022/08/07 13:28:06;;;;;;;7.18;1.42;;;;;;;;;;5047808;28;20043;-67
2022/08/07 13:30:34;;;;;;;6.50;1.63;;;;;;;;;;5044841;28;20036;-67
2022/08/07 13:33:04;;;;;;;5.28;1.60;;;;;;;;;;5049013;28;20059;-66
2022/08/07 13:35:53;;;;;;;6.95;1.65;;;;;;;;;;5046346;28;20028;-66
2022/08/07 13:38:21;;;;;;;6.55;1.42;;;;;;;;;;5028706;28;20612;-66
2022/08/07 13:41:02;;;;;;;5.75;1.60;;;;;;;;;;5048967;28;20101;-66
2022/08/07 13:43:29;;;;;;;6.78;1.75;;;;;;;;;;5046810;28;20597;-67
2022/08/07 13:45:56;;;;;;;8.93;1.80;;;;;;;;;;5048272;28;20568;-66
2022/08/07 13:48:23;;;;;;;6.45;1.77;;;;;;;;;;5046391;28;20033;-66
2022/08/07 13:50:50;;;;;;;5.30;1.48;;;;;;;;;;5049136;28;20103;-66
2022/08/07 13:53:22;;;;;;;6.50;1.60;;;;;;;;;;5043809;28;20565;-66
2022/08/07 13:55:49;;;;;;;4.95;1.63;;;;;;;;;;5047025;28;20024;-66
2022/08/07 14:01:13;;;;;;;5.43;1.63;;;;;;;;;;5013968;28;20041;-67
2022/08/07 14:03:40;;;;;;;5.15;1.80;;;;;;;;;;5019878;28;20302;-66
2022/08/07 14:06:08;;;;;;;8.65;2.22;;;;;;;;;;5014122;28;20631;-67
2022/08/07 14:08:36;;;;;;;6.15;1.73;;;;;;;;;;5019585;28;20094;-66
2022/08/07 14:11:04;;;;;;;5.57;1.70;;;;;;;;;;5012717;28;20033;-67
2022/08/07 14:13:31;;;;;;;7.97;1.95;;;;;;;;;;5014294;28;20514;-66
2022/08/07 14:16:02;;;;;;;4.32;1.45;;;;;;;;;;5016347;28;20588;-66
2022/08/07 14:18:37;;;;;;;4.78;1.73;;;;;;;;;;5011381;28;20624;-66
2022/08/07 14:21:12;;;;;;;6.25;2.20;;;;;;;;;;5024764;28;20473;-67
2022/08/07 14:23:39;;;;;;;5.32;1.65;;;;;;;;;;5019844;28;20041;-67
2022/08/07 14:26:09;;;;;;;6.38;1.88;;;;;;;;;;5019959;28;20065;-67
2022/08/07 14:28:36;;;;;;;5.30;1.80;;;;;;;;;;5022055;28;20861;-66
2022/08/07 14:31:03;;;;;;;5.38;1.30;;;;;;;;;;5018378;28;20546;-67
2022/08/07 14:33:31;;;;;;;5.28;1.50;;;;;;;;;;5013569;28;20634;-67
2022/08/07 14:35:58;;;;;;;5.25;1.50;;;;;;;;;;5019261;28;20045;-66
2022/08/07 14:38:25;;;;;;;5.53;1.50;;;;;;;;;;5034823;28;20036;-66
2022/08/07 14:41:11;;;;;;;5.00;1.55;;;;;;;;;;5065293;28;20557;-66
2022/08/07 14:43:41;;;;;;;6.50;1.60;;;;;;;;;;5048182;28;20092;-66
2022/08/07 14:46:08;;;;;;;4.32;1.45;;;;;;;;;;5045772;28;20043;-67
2022/08/07 14:48:36;;;;;;;5.22;1.42;;;;;;;;;;5052104;28;20032;-66
2022/08/07 14:51:13;;;;;;;4.97;1.45;;;;;;;;;;5052833;28;20532;-66
2022/08/07 14:53:43;;;;;;;5.05;1.50;;;;;;;;;;5049197;28;20568;-64
2022/08/07 14:56:10;;;;;;;6.55;1.98;;;;;;;;;;5048592;28;20030;-64
2022/08/07 14:58:38;;;;;;;6.50;1.60;;;;;;;;;;5051818;28;20044;-64
2022/08/07 15:01:05;;;;;;;5.93;1.42;;;;;;;;;;5051451;28;20482;-65
2022/08/07 15:03:32;;;;;;;5.47;1.50;;;;;;;;;;5041909;28;20040;-64